createdAt,value
2023-02-18T00:00:10.122Z,101454.38
2023-02-18T00:05:14.027Z,101440.00
2023-02-18T00:10:18.116Z,101447.63
2023-02-18T00:15:23.426Z,101451.69
2023-02-18T00:20:27.123Z,101449.28
2023-02-18T00:25:30.960Z,101447.03
2023-02-18T00:30:36.263Z,101444.47
2023-02-18T00:35:39.866Z,101447.09
2023-02-18T00:40:44.009Z,101441.16
2023-02-18T00:45:49.302Z,101434.16
2023-02-18T00:50:52.940Z,101432.34
2023-02-18T00:55:56.768Z,101428.78
2023-02-18T01:01:03.375Z,101428.59
2023-02-18T01:06:08.772Z,101429.28
2023-02-18T01:11:13.656Z,101429.97
2023-02-18T01:16:20.404Z,101431.66
2023-02-18T01:21:24.122Z,101441.31
2023-02-18T01:26:27.760Z,101429.72
2023-02-18T01:31:33.195Z,101427.78
2023-02-18T01:36:36.930Z,101433.28
2023-02-18T01:41:40.604Z,101441.88
2023-02-18T01:46:46.184Z,101439.66
2023-02-18T01:51:53.060Z,101447.72
2023-02-18T01:56:59.661Z,101454.13
2023-02-18T02:02:07.247Z,101455.75
2023-02-18T02:07:11.060Z,101457.28
2023-02-18T02:12:44.854Z,101462.81
2023-02-18T02:18:03.060Z,101469.75
2023-02-18T02:23:30.333Z,101467.63
2023-02-18T02:29:04.735Z,101465.06
2023-02-18T02:34:40.044Z,101479.22
2023-02-18T02:39:54.741Z,101487.56
2023-02-18T02:45:05.462Z,101478.38
2023-02-18T02:50:14.822Z,101495.19
2023-02-18T02:55:18.535Z,101489.22
2023-02-18T03:00:27.994Z,101497.78
2023-02-18T03:05:47.094Z,101497.72
2023-02-18T03:10:58.633Z,101502.88
2023-02-18T03:16:12.079Z,101507.19
2023-02-18T03:21:24.921Z,101500.19
2023-02-18T03:26:30.691Z,101505.53
2023-02-18T03:31:38.702Z,101495.38
2023-02-18T03:36:44.792Z,101507.59
2023-02-18T03:41:49.748Z,101498.06
2023-02-18T03:46:53.774Z,101504.09
2023-02-18T03:51:59.043Z,101498.38
2023-02-18T03:57:02.652Z,101511.75
2023-02-18T04:02:06.298Z,101511.06
2023-02-18T04:07:11.586Z,101516.53
2023-02-18T04:12:15.393Z,101510.78
2023-02-18T04:17:19.039Z,101515.25
2023-02-18T04:22:24.369Z,101518.75
2023-02-18T04:27:28.771Z,101529.19
2023-02-18T04:32:32.574Z,101537.97
2023-02-18T04:37:37.874Z,101534.50
2023-02-18T04:42:41.724Z,101533.56
2023-02-18T04:47:45.385Z,101534.44
2023-02-18T04:52:50.716Z,101526.72
2023-02-18T04:57:54.377Z,101524.16
2023-02-18T05:02:58.070Z,101517.22
2023-02-18T05:08:03.419Z,101514.75
2023-02-18T05:13:07.066Z,101522.69
2023-02-18T05:18:11.340Z,101518.41
2023-02-18T05:23:16.636Z,101525.34
2023-02-18T05:28:20.315Z,101525.41
2023-02-18T05:33:23.975Z,101520.19
2023-02-18T05:38:29.320Z,101521.88
2023-02-18T05:43:33.620Z,101527.06
2023-02-18T05:48:37.284Z,101528.81
2023-02-18T05:53:46.724Z,101531.44
2023-02-18T05:58:50.474Z,101519.25
2023-02-18T06:03:54.124Z,101515.78
2023-02-18T06:08:59.555Z,101526.22
2023-02-18T06:14:03.693Z,101534.09
2023-02-18T06:19:07.385Z,101528.03
2023-02-18T06:24:18.600Z,101525.44
2023-02-18T06:29:22.770Z,101527.16
2023-02-18T06:34:27.513Z,101522.84
2023-02-18T06:39:32.840Z,101540.13
2023-02-18T06:44:37.950Z,101547.03
2023-02-18T06:49:41.748Z,101551.38
2023-02-18T06:54:47.153Z,101538.38
2023-02-18T06:59:50.804Z,101532.31
2023-02-18T07:04:54.797Z,101546.97
2023-02-18T07:10:00.116Z,101541.78
2023-02-18T07:15:04.224Z,101541.75
2023-02-18T07:20:09.104Z,101532.25
2023-02-18T07:25:14.709Z,101531.34
2023-02-18T07:30:18.745Z,101535.63
2023-02-18T07:35:22.613Z,101540.78
2023-02-18T07:40:27.964Z,101544.28
2023-02-18T07:45:31.569Z,101537.28
2023-02-18T07:50:35.242Z,101551.97
2023-02-18T07:55:41.011Z,101549.34
2023-02-18T08:00:45.006Z,101558.81
2023-02-18T08:05:51.170Z,101561.31
2023-02-18T08:10:59.677Z,101562.84
2023-02-18T08:16:04.793Z,101556.75
2023-02-18T08:21:08.425Z,101565.47
2023-02-18T08:26:14.004Z,101568.06
2023-02-18T08:31:20.216Z,101577.47
2023-02-18T08:36:24.399Z,101586.06
2023-02-18T08:41:29.692Z,101572.13
2023-02-18T08:46:35.466Z,101571.31
2023-02-18T08:51:40.805Z,101568.63
2023-02-18T08:56:46.167Z,101570.34
2023-02-18T09:01:49.857Z,101563.34
2023-02-18T09:06:53.495Z,101567.69
2023-02-18T09:11:58.872Z,101564.97
2023-02-18T09:17:02.519Z,101570.84
2023-02-18T09:22:06.125Z,101566.47
2023-02-18T09:27:11.671Z,101566.72
2023-02-18T09:32:25.459Z,101561.44
2023-02-18T09:37:36.320Z,101557.78
2023-02-18T09:42:41.658Z,101571.66
2023-02-18T09:47:47.054Z,101570.63
2023-02-18T09:52:50.863Z,101571.41
2023-02-18T09:58:00.239Z,101567.97
2023-02-18T10:03:08.037Z,101567.91
2023-02-18T10:08:25.268Z,101568.78
2023-02-18T10:13:33.277Z,101562.59
2023-02-18T10:18:42.781Z,101563.38
2023-02-18T10:23:54.668Z,101561.28
2023-02-18T10:29:00.176Z,101563.28
2023-02-18T10:34:14.454Z,101563.88
2023-02-18T10:39:34.683Z,101549.38
2023-02-18T10:44:49.102Z,101534.66
2023-02-18T10:49:59.313Z,101543.19
2023-02-18T10:55:04.352Z,101547.13
2023-02-18T11:00:18.675Z,101538.34
2023-02-18T11:05:28.713Z,101515.94
2023-02-18T11:10:34.451Z,101510.16
2023-02-18T11:15:54.121Z,101511.66
2023-02-18T11:20:59.793Z,101503.84
2023-02-18T11:26:06.725Z,101508.34
2023-02-18T11:31:22.612Z,101513.41
2023-02-18T11:36:29.760Z,101507.25
2023-02-18T11:41:36.767Z,101507.94
2023-02-18T11:46:58.361Z,101513.88
2023-02-18T11:52:15.527Z,101522.34
2023-02-18T11:57:20.989Z,101536.19
2023-02-18T12:02:34.828Z,101535.34
2023-02-18T12:07:45.323Z,101542.19
2023-02-18T12:12:53.311Z,101530.88
2023-02-18T12:18:39.586Z,101524.69
2023-02-18T12:23:54.855Z,101520.97
2023-02-18T12:29:18.482Z,101526.44
2023-02-18T12:34:40.118Z,101535.06
2023-02-18T12:40:04.258Z,101523.28
2023-02-18T12:45:32.914Z,101519.19
2023-02-18T12:51:01.544Z,101515.50
2023-02-18T12:56:24.798Z,101512.91
2023-02-18T13:01:40.257Z,101512.09
2023-02-18T13:07:04.917Z,101509.41
2023-02-18T13:12:16.085Z,101500.72
2023-02-18T13:17:22.841Z,101505.59
2023-02-18T13:22:30.990Z,101510.84
2023-02-18T13:27:41.847Z,101506.59
2023-02-18T13:32:53.372Z,101502.13
2023-02-18T13:38:27.520Z,101495.31
2023-02-18T13:43:32.867Z,101499.53
2023-02-18T13:48:43.302Z,101504.66
2023-02-18T13:53:53.297Z,101502.69
2023-02-18T13:59:02.217Z,101500.06
2023-02-18T14:04:27.294Z,101504.34
2023-02-18T14:09:42.403Z,101511.28
2023-02-18T14:14:46.993Z,101520.44
2023-02-18T14:19:55.648Z,101519.78
2023-02-18T14:25:05.221Z,101528.47
2023-02-18T14:30:20.116Z,101535.28
2023-02-18T14:35:33.611Z,101541.00
2023-02-18T14:40:59.424Z,101546.72
2023-02-18T14:46:11.282Z,101540.03
2023-02-18T14:51:17.627Z,101541.13
2023-02-18T14:56:24.555Z,101552.31
2023-02-18T15:01:30.857Z,101556.53
2023-02-18T15:06:36.587Z,101557.38
2023-02-18T15:11:45.852Z,101551.41
2023-02-18T15:16:50.949Z,101556.16
2023-02-18T15:21:57.695Z,101564.13
2023-02-18T15:27:06.276Z,101566.28
2023-02-18T15:32:19.234Z,101576.41
2023-02-18T15:37:22.957Z,101575.91
2023-02-18T15:42:32.499Z,101580.97
2023-02-18T15:47:42.404Z,101570.38
2023-02-18T15:52:46.595Z,101569.94
2023-02-18T15:57:52.491Z,101570.50
2023-02-18T16:02:57.809Z,101563.88
2023-02-18T16:08:06.081Z,101565.88
2023-02-18T16:13:15.163Z,101567.59
2023-02-18T16:18:31.488Z,101583.38
2023-02-18T16:23:41.583Z,101580.88
2023-02-18T16:28:47.300Z,101588.69
2023-02-18T16:33:51.121Z,101588.69
2023-02-18T16:38:54.765Z,101580.84
2023-02-18T16:44:00.531Z,101572.03
2023-02-18T16:49:04.330Z,101589.94
2023-02-18T16:54:10.742Z,101598.56
2023-02-18T16:59:16.187Z,101605.38
2023-02-18T17:04:20.574Z,101606.00
2023-02-18T17:09:25.420Z,101607.38
2023-02-18T17:14:30.816Z,101615.81
2023-02-18T17:19:34.428Z,101608.38
2023-02-18T17:24:38.044Z,101600.94
2023-02-18T17:29:43.324Z,101589.63
2023-02-18T17:34:47.003Z,101590.56
2023-02-18T17:39:50.629Z,101575.34
2023-02-18T17:44:55.961Z,101569.25
2023-02-18T17:49:59.578Z,101566.81
2023-02-18T17:55:03.228Z,101567.56
2023-02-18T18:00:09.790Z,101570.56
2023-02-18T18:05:22.392Z,101583.94
2023-02-18T18:10:27.558Z,101585.72
2023-02-18T18:15:34.324Z,101595.06
2023-02-18T18:20:38.599Z,101601.59
2023-02-18T18:25:43.889Z,101598.38
2023-02-18T18:30:51.189Z,101599.66
2023-02-18T18:35:56.799Z,101587.19
2023-02-18T18:41:00.487Z,101581.91
2023-02-18T18:46:07.315Z,101567.28
2023-02-18T18:51:15.231Z,101567.22
2023-02-18T18:56:18.904Z,101570.13
2023-02-18T19:01:24.505Z,101577.41
2023-02-18T19:06:28.930Z,101574.63
2023-02-18T19:11:32.554Z,101564.97
2023-02-18T19:16:39.884Z,101548.06
2023-02-18T19:21:43.482Z,101549.19
2023-02-18T19:26:47.128Z,101540.41
2023-02-18T19:31:52.484Z,101523.44
2023-02-18T19:36:56.120Z,101507.13
2023-02-18T19:41:59.739Z,101495.13
2023-02-18T19:47:05.091Z,101490.19
2023-02-18T19:52:08.805Z,101497.88
2023-02-18T19:57:12.954Z,101493.59
2023-02-18T20:02:21.869Z,101497.97
2023-02-18T20:07:25.533Z,101482.09
2023-02-18T20:12:29.310Z,101473.09
2023-02-18T20:17:34.724Z,101477.81
2023-02-18T20:22:38.327Z,101468.78
2023-02-18T20:27:58.268Z,101468.25
2023-02-18T20:33:05.448Z,101477.91
2023-02-18T20:38:09.094Z,101485.41
2023-02-18T20:43:12.695Z,101492.91
2023-02-18T20:48:19.954Z,101474.88
2023-02-18T20:53:23.571Z,101456.19
2023-02-18T20:58:27.538Z,101441.84
2023-02-18T21:03:33.029Z,101433.00
2023-02-18T21:08:40.286Z,101421.25
2023-02-18T21:13:45.731Z,101413.38
2023-02-18T21:18:51.456Z,101416.94
2023-02-18T21:23:54.319Z,101412.00
2023-02-18T21:29:00.751Z,101421.22
2023-02-18T21:34:07.025Z,101425.63
2023-02-18T21:39:11.513Z,101424.88
2023-02-18T21:44:15.183Z,101407.59
2023-02-18T21:49:20.573Z,101397.28
2023-02-18T21:54:25.765Z,101400.97
2023-02-18T21:59:31.410Z,101408.34
2023-02-18T22:04:37.885Z,101392.22
2023-02-18T22:09:41.654Z,101380.94
2023-02-18T22:14:45.575Z,101377.13
2023-02-18T22:19:51.271Z,101385.00
2023-02-18T22:24:54.114Z,101385.47
2023-02-18T22:29:57.839Z,101393.13
2023-02-18T22:35:03.121Z,101399.38
2023-02-18T22:40:07.323Z,101384.13
2023-02-18T22:45:11.116Z,101375.72
2023-02-18T22:50:17.310Z,101379.22
2023-02-18T22:55:21.022Z,101382.28
2023-02-18T23:00:26.528Z,101374.91
2023-02-18T23:05:34.561Z,101371.59
2023-02-18T23:10:38.174Z,101371.88
2023-02-18T23:15:41.781Z,101356.69
2023-02-18T23:20:47.096Z,101358.22
2023-02-18T23:25:50.736Z,101350.97
2023-02-18T23:30:55.092Z,101351.53
2023-02-18T23:36:10.016Z,101337.84
2023-02-18T23:41:13.655Z,101333.94
2023-02-18T23:46:19.002Z,101336.03
2023-02-18T23:51:24.502Z,101335.53
2023-02-18T23:56:29.260Z,101326.16
